sensor_id;sensor_type;location;lat;lon;timestamp;pressure;altitude;pressure_sealevel;temperature;humidity
61537;BME280;48695;53.480;-6.300;2022-12-07T00:01:10;102231.16;;;6.15;74.31
61537;BME280;48695;53.480;-6.300;2022-12-07T00:03:37;102225.09;;;6.16;74.35
61537;BME280;48695;53.480;-6.300;2022-12-07T00:06:03;102219.81;;;6.10;74.67
61537;BME280;48695;53.480;-6.300;2022-12-07T00:08:29;102221.53;;;6.09;74.24
61537;BME280;48695;53.480;-6.300;2022-12-07T00:10:55;102194.47;;;5.96;74.45
61537;BME280;48695;53.480;-6.300;2022-12-07T00:13:25;102197.81;;;5.92;74.51
61537;BME280;48695;53.480;-6.300;2022-12-07T00:15:50;102212.72;;;6.01;74.58
61537;BME280;48695;53.480;-6.300;2022-12-07T00:18:16;102213.56;;;6.02;74.57
61537;BME280;48695;53.480;-6.300;2022-12-07T00:20:41;102220.50;;;6.03;75.02
61537;BME280;48695;53.480;-6.300;2022-12-07T00:23:06;102208.38;;;6.02;74.81
61537;BME280;48695;53.480;-6.300;2022-12-07T00:25:32;102210.97;;;6.00;75.00
61537;BME280;48695;53.480;-6.300;2022-12-07T00:27:57;102204.91;;;6.00;74.73
61537;BME280;48695;53.480;-6.300;2022-12-07T00:30:23;102201.38;;;5.97;75.00
61537;BME280;48695;53.480;-6.300;2022-12-07T00:32:49;102193.50;;;5.93;74.66
61537;BME280;48695;53.480;-6.300;2022-12-07T00:35:15;102209.25;;;6.01;74.45
61537;BME280;48695;53.480;-6.300;2022-12-07T00:37:40;102202.34;;;6.03;74.78
61537;BME280;48695;53.480;-6.300;2022-12-07T00:40:06;102194.47;;;5.96;74.63
61537;BME280;48695;53.480;-6.300;2022-12-07T00:42:33;102192.84;;;6.02;74.35
61537;BME280;48695;53.480;-6.300;2022-12-07T00:44:58;102201.47;;;6.01;74.47
61537;BME280;48695;53.480;-6.300;2022-12-07T00:47:23;102198.84;;;5.99;74.40
61537;BME280;48695;53.480;-6.300;2022-12-07T00:49:49;102189.28;;;5.96;74.35
61537;BME280;48695;53.480;-6.300;2022-12-07T00:52:14;102196.28;;;6.01;74.31
61537;BME280;48695;53.480;-6.300;2022-12-07T00:54:40;102198.03;;;6.02;74.31
61537;BME280;48695;53.480;-6.300;2022-12-07T00:57:05;102187.59;;;5.98;74.42
61537;BME280;48695;53.480;-6.300;2022-12-07T00:59:31;102178.03;;;5.96;74.12
61537;BME280;48695;53.480;-6.300;2022-12-07T01:01:56;102182.41;;;5.98;74.63
61537;BME280;48695;53.480;-6.300;2022-12-07T01:04:21;102178.91;;;5.96;74.18
61537;BME280;48695;53.480;-6.300;2022-12-07T01:06:47;102163.09;;;5.84;74.15
61537;BME280;48695;53.480;-6.300;2022-12-07T01:09:12;102192.91;;;6.05;74.30
61537;BME280;48695;53.480;-6.300;2022-12-07T01:11:38;102168.38;;;5.90;74.10
61537;BME280;48695;53.480;-6.300;2022-12-07T01:14:03;102172.88;;;5.97;74.14
61537;BME280;48695;53.480;-6.300;2022-12-07T01:16:30;102199.91;;;6.09;74.27
61537;BME280;48695;53.480;-6.300;2022-12-07T01:18:58;102100.25;;;5.54;74.12
61537;BME280;48695;53.480;-6.300;2022-12-07T01:21:29;102170.28;;;5.97;74.30
61537;BME280;48695;53.480;-6.300;2022-12-07T01:23:57;102186.09;;;6.10;74.36
61537;BME280;48695;53.480;-6.300;2022-12-07T01:26:24;102172.19;;;6.08;74.16
61537;BME280;48695;53.480;-6.300;2022-12-07T01:28:50;102171.31;;;6.06;74.04
61537;BME280;48695;53.480;-6.300;2022-12-07T01:31:18;102172.28;;;6.11;74.07
61537;BME280;48695;53.480;-6.300;2022-12-07T01:33:47;102161.69;;;5.98;74.05
61537;BME280;48695;53.480;-6.300;2022-12-07T01:36:18;102167.94;;;6.10;73.97
61537;BME280;48695;53.480;-6.300;2022-12-07T01:38:45;102170.53;;;6.10;74.31
61537;BME280;48695;53.480;-6.300;2022-12-07T01:41:12;102163.53;;;6.06;74.14
61537;BME280;48695;53.480;-6.300;2022-12-07T01:46:34;102163.63;;;6.12;73.61
61537;BME280;48695;53.480;-6.300;2022-12-07T01:49:01;102155.78;;;6.07;73.62
61537;BME280;48695;53.480;-6.300;2022-12-07T01:51:28;102147.84;;;6.00;73.86
61537;BME280;48695;53.480;-6.300;2022-12-07T01:53:54;102129.41;;;5.86;73.80
61537;BME280;48695;53.480;-6.300;2022-12-07T01:56:24;102136.41;;;5.90;74.11
61537;BME280;48695;53.480;-6.300;2022-12-07T01:58:52;102105.78;;;5.72;73.79
61537;BME280;48695;53.480;-6.300;2022-12-07T02:01:18;102152.16;;;5.99;74.11
61537;BME280;48695;53.480;-6.300;2022-12-07T02:03:44;102158.19;;;5.98;74.12
61537;BME280;48695;53.480;-6.300;2022-12-07T02:06:13;102134.59;;;5.86;73.69
61537;BME280;48695;53.480;-6.300;2022-12-07T02:08:42;102130.16;;;5.80;73.57
61537;BME280;48695;53.480;-6.300;2022-12-07T02:11:08;102152.03;;;5.93;73.51
61537;BME280;48695;53.480;-6.300;2022-12-07T02:13:36;102159.88;;;5.94;73.28
61537;BME280;48695;53.480;-6.300;2022-12-07T02:16:19;102157.28;;;5.96;73.37
61537;BME280;48695;53.480;-6.300;2022-12-07T02:26:55;102150.22;;;5.90;73.64
61537;BME280;48695;53.480;-6.300;2022-12-07T02:30:16;102130.22;;;5.83;73.39
61537;BME280;48695;53.480;-6.300;2022-12-07T02:43:17;102145.63;;;5.77;73.25
61537;BME280;48695;53.480;-6.300;2022-12-07T02:45:45;102149.03;;;5.73;73.68
61537;BME280;48695;53.480;-6.300;2022-12-07T02:48:14;102148.13;;;5.72;73.65
61537;BME280;48695;53.480;-6.300;2022-12-07T02:50:51;102142.94;;;5.71;73.36
61537;BME280;48695;53.480;-6.300;2022-12-07T02:53:37;102120.22;;;5.59;73.35
61537;BME280;48695;53.480;-6.300;2022-12-07T03:07:08;102128.09;;;5.64;73.33
61537;BME280;48695;53.480;-6.300;2022-12-07T03:09:39;102134.19;;;5.66;73.30
61537;BME280;48695;53.480;-6.300;2022-12-07T03:12:12;102109.78;;;5.55;73.49
61537;BME280;48695;53.480;-6.300;2022-12-07T03:14:49;102130.72;;;5.65;73.12
61537;BME280;48695;53.480;-6.300;2022-12-07T03:17:28;102122.88;;;5.62;73.28
61537;BME280;48695;53.480;-6.300;2022-12-07T03:19:59;102130.72;;;5.65;73.47
61537;BME280;48695;53.480;-6.300;2022-12-07T03:22:29;102127.25;;;5.65;73.61
61537;BME280;48695;53.480;-6.300;2022-12-07T03:24:59;102126.31;;;5.61;73.14
61537;BME280;48695;53.480;-6.300;2022-12-07T03:27:33;102124.66;;;5.65;73.39
61537;BME280;48695;53.480;-6.300;2022-12-07T03:30:07;102094.97;;;5.47;73.10
61537;BME280;48695;53.480;-6.300;2022-12-07T03:35:18;102126.41;;;5.66;73.34
61537;BME280;48695;53.480;-6.300;2022-12-07T03:37:51;102093.25;;;5.50;73.25
61537;BME280;48695;53.480;-6.300;2022-12-07T03:42:51;102114.22;;;5.62;72.93
61537;BME280;48695;53.480;-6.300;2022-12-07T03:45:18;102095.84;;;5.50;73.43
61537;BME280;48695;53.480;-6.300;2022-12-07T03:47:50;102119.59;;;5.71;73.06
61537;BME280;48695;53.480;-6.300;2022-12-07T03:53:04;102116.03;;;5.66;73.15
61537;BME280;48695;53.480;-6.300;2022-12-07T03:55:35;102119.56;;;5.68;72.76
61537;BME280;48695;53.480;-6.300;2022-12-07T03:58:06;102097.72;;;5.57;73.08
61537;BME280;48695;53.480;-6.300;2022-12-07T04:00:33;102116.03;;;5.64;72.88
61537;BME280;48695;53.480;-6.300;2022-12-07T04:02:58;102086.34;;;5.49;72.86
61537;BME280;48695;53.480;-6.300;2022-12-07T04:05:24;102096.81;;;5.55;72.75
61537;BME280;48695;53.480;-6.300;2022-12-07T04:07:50;102109.91;;;5.62;73.10
61537;BME280;48695;53.480;-6.300;2022-12-07T04:10:15;102104.72;;;5.61;72.77
61537;BME280;48695;53.480;-6.300;2022-12-07T04:12:41;102089.03;;;5.53;73.12
61537;BME280;48695;53.480;-6.300;2022-12-07T04:15:07;102100.38;;;5.60;72.60
61537;BME280;48695;53.480;-6.300;2022-12-07T04:17:32;102095.19;;;5.60;72.92
61537;BME280;48695;53.480;-6.300;2022-12-07T04:19:58;102095.97;;;5.56;73.07
61537;BME280;48695;53.480;-6.300;2022-12-07T04:22:23;102093.34;;;5.53;72.91
61537;BME280;48695;53.480;-6.300;2022-12-07T04:24:48;102085.38;;;5.45;73.07
61537;BME280;48695;53.480;-6.300;2022-12-07T04:27:14;102089.78;;;5.47;72.66
61537;BME280;48695;53.480;-6.300;2022-12-07T04:29:39;102091.44;;;5.45;72.85
61537;BME280;48695;53.480;-6.300;2022-12-07T04:32:05;102094.97;;;5.47;73.04
61537;BME280;48695;53.480;-6.300;2022-12-07T04:34:30;102089.63;;;5.41;73.02
61537;BME280;48695;53.480;-6.300;2022-12-07T04:36:56;102088.75;;;5.41;73.09
61537;BME280;48695;53.480;-6.300;2022-12-07T04:39:27;102094.81;;;5.41;72.60
61537;BME280;48695;53.480;-6.300;2022-12-07T04:41:53;102017.91;;;4.97;72.63
61537;BME280;48695;53.480;-6.300;2022-12-07T04:44:19;102089.59;;;5.38;73.12
61537;BME280;48695;53.480;-6.300;2022-12-07T04:46:45;102062.41;;;5.19;72.90
61537;BME280;48695;53.480;-6.300;2022-12-07T04:49:11;102083.38;;;5.32;72.77
61537;BME280;48695;53.480;-6.300;2022-12-07T04:51:37;102060.66;;;5.18;73.23
61537;BME280;48695;53.480;-6.300;2022-12-07T04:54:02;102081.63;;;5.31;72.96
61537;BME280;48695;53.480;-6.300;2022-12-07T04:56:28;102081.63;;;5.31;73.17
61537;BME280;48695;53.480;-6.300;2022-12-07T04:58:54;102062.41;;;5.19;72.74
61537;BME280;48695;53.480;-6.300;2022-12-07T05:01:19;102079.03;;;5.29;72.96
61537;BME280;48695;53.480;-6.300;2022-12-07T05:03:46;102052.78;;;5.12;72.84
61537;BME280;48695;53.480;-6.300;2022-12-07T05:06:12;102077.28;;;5.28;73.18
61537;BME280;48695;53.480;-6.300;2022-12-07T05:08:38;102059.72;;;5.15;72.82
61537;BME280;48695;53.480;-6.300;2022-12-07T05:11:04;102079.91;;;5.30;73.14
61537;BME280;48695;53.480;-6.300;2022-12-07T05:13:30;102065.97;;;5.25;72.95
61537;BME280;48695;53.480;-6.300;2022-12-07T05:15:56;102066.84;;;5.25;73.04
61537;BME280;48695;53.480;-6.300;2022-12-07T05:18:21;102074.63;;;5.27;73.28
61537;BME280;48695;53.480;-6.300;2022-12-07T05:20:47;102080.75;;;5.30;73.25
61537;BME280;48695;53.480;-6.300;2022-12-07T05:23:12;102060.69;;;5.20;73.06
61537;BME280;48695;53.480;-6.300;2022-12-07T05:25:38;102058.03;;;5.17;73.17
61537;BME280;48695;53.480;-6.300;2022-12-07T05:28:04;102057.22;;;5.18;73.26
61537;BME280;48695;53.480;-6.300;2022-12-07T05:30:30;102071.19;;;5.26;72.98
61537;BME280;48695;53.480;-6.300;2022-12-07T05:32:56;102073.81;;;5.28;73.07
61537;BME280;48695;53.480;-6.300;2022-12-07T05:35:22;102075.66;;;5.33;73.29
61537;BME280;48695;53.480;-6.300;2022-12-07T05:37:47;102060.81;;;5.26;73.01
61537;BME280;48695;53.480;-6.300;2022-12-07T05:40:14;102052.06;;;5.19;73.15
61537;BME280;48695;53.480;-6.300;2022-12-07T05:42:40;102068.66;;;5.29;72.83
61537;BME280;48695;53.480;-6.300;2022-12-07T05:45:06;102073.09;;;5.35;72.98
61537;BME280;48695;53.480;-6.300;2022-12-07T05:47:31;102061.75;;;5.28;72.69
61537;BME280;48695;53.480;-6.300;2022-12-07T05:49:57;102065.31;;;5.33;73.09
61537;BME280;48695;53.480;-6.300;2022-12-07T05:52:22;102058.31;;;5.29;72.99
61537;BME280;48695;53.480;-6.300;2022-12-07T05:54:48;102061.00;;;5.34;73.21
61537;BME280;48695;53.480;-6.300;2022-12-07T05:57:14;102061.94;;;5.37;73.09
61537;BME280;48695;53.480;-6.300;2022-12-07T05:59:39;102039.13;;;5.21;73.37
61537;BME280;48695;53.480;-6.300;2022-12-07T06:02:10;102057.56;;;5.35;73.12
61537;BME280;48695;53.480;-6.300;2022-12-07T06:04:38;102063.72;;;5.41;73.07
61537;BME280;48695;53.480;-6.300;2022-12-07T06:07:05;102057.56;;;5.35;72.95
61537;BME280;48695;53.480;-6.300;2022-12-07T06:09:31;102053.25;;;5.35;73.29
61537;BME280;48695;53.480;-6.300;2022-12-07T06:11:58;102062.84;;;5.41;73.19
61537;BME280;48695;53.480;-6.300;2022-12-07T06:14:42;102061.97;;;5.40;72.91
61537;BME280;48695;53.480;-6.300;2022-12-07T06:17:08;102053.31;;;5.38;73.18
61537;BME280;48695;53.480;-6.300;2022-12-07T06:19:34;102055.06;;;5.39;72.80
61537;BME280;48695;53.480;-6.300;2022-12-07T06:22:00;102048.16;;;5.40;72.83
61537;BME280;48695;53.480;-6.300;2022-12-07T06:24:26;102036.69;;;5.27;72.56
61537;BME280;48695;53.480;-6.300;2022-12-07T06:26:52;102048.91;;;5.34;72.64
61537;BME280;48695;53.480;-6.300;2022-12-07T06:29:18;102047.06;;;5.29;72.78
61537;BME280;48695;53.480;-6.300;2022-12-07T06:31:44;102042.84;;;5.32;72.91
61537;BME280;48695;53.480;-6.300;2022-12-07T06:34:12;102050.63;;;5.34;72.50
61537;BME280;48695;53.480;-6.300;2022-12-07T06:36:39;102051.44;;;5.31;72.77
61537;BME280;48695;53.480;-6.300;2022-12-07T06:39:05;102044.50;;;5.30;72.67
61537;BME280;48695;53.480;-6.300;2022-12-07T06:41:31;102042.75;;;5.29;72.83
61537;BME280;48695;53.480;-6.300;2022-12-07T06:43:57;102044.47;;;5.27;72.91
61537;BME280;48695;53.480;-6.300;2022-12-07T06:46:23;102054.81;;;5.27;73.18
61537;BME280;48695;53.480;-6.300;2022-12-07T06:48:48;102043.41;;;5.17;73.02
61537;BME280;48695;53.480;-6.300;2022-12-07T06:51:14;102047.75;;;5.20;73.15
61537;BME280;48695;53.480;-6.300;2022-12-07T06:53:39;102057.31;;;5.23;72.60
61537;BME280;48695;53.480;-6.300;2022-12-07T06:56:05;102024.03;;;5.02;72.71
61537;BME280;48695;53.480;-6.300;2022-12-07T06:58:30;102041.53;;;5.12;72.63
61537;BME280;48695;53.480;-6.300;2022-12-07T07:00:56;102049.44;;;5.18;72.81
61537;BME280;48695;53.480;-6.300;2022-12-07T07:03:22;102055.44;;;5.17;72.82
61537;BME280;48695;53.480;-6.300;2022-12-07T07:05:47;102051.09;;;5.16;72.52
61537;BME280;48695;53.480;-6.300;2022-12-07T07:08:13;102048.47;;;5.13;72.88
61537;BME280;48695;53.480;-6.300;2022-12-07T07:10:39;102045.72;;;5.07;72.89
61537;BME280;48695;53.480;-6.300;2022-12-07T07:13:04;102025.72;;;4.98;72.56
61537;BME280;48695;53.480;-6.300;2022-12-07T07:15:32;102044.03;;;5.07;72.61
61537;BME280;48695;53.480;-6.300;2022-12-07T07:17:57;102053.59;;;5.11;72.73
61537;BME280;48695;53.480;-6.300;2022-12-07T07:20:23;102031.69;;;4.95;72.55
61537;BME280;48695;53.480;-6.300;2022-12-07T07:22:49;102046.63;;;5.07;72.74
61537;BME280;48695;53.480;-6.300;2022-12-07T07:25:14;102030.03;;;4.99;72.54
61537;BME280;48695;53.480;-6.300;2022-12-07T07:27:40;102025.59;;;4.92;72.47
61537;BME280;48695;53.480;-6.300;2022-12-07T07:30:06;102042.16;;;5.02;72.66
61537;BME280;48695;53.480;-6.300;2022-12-07T07:32:32;102049.16;;;5.06;72.32
61537;BME280;48695;53.480;-6.300;2022-12-07T07:34:57;102008.91;;;4.79;72.23
61537;BME280;48695;53.480;-6.300;2022-12-07T07:37:23;102043.06;;;5.02;72.35
61537;BME280;48695;53.480;-6.300;2022-12-07T07:39:48;102014.16;;;4.82;72.36
61537;BME280;48695;53.480;-6.300;2022-12-07T07:42:14;102037.63;;;4.91;72.30
61537;BME280;48695;53.480;-6.300;2022-12-07T07:44:39;102042.97;;;4.98;72.57
61537;BME280;48695;53.480;-6.300;2022-12-07T07:47:05;102039.31;;;4.89;72.44
61537;BME280;48695;53.480;-6.300;2022-12-07T07:49:30;102038.34;;;4.84;72.96
61537;BME280;48695;53.480;-6.300;2022-12-07T07:51:56;102005.03;;;4.60;72.51
61537;BME280;48695;53.480;-6.300;2022-12-07T07:54:21;102062.63;;;4.89;72.17
61537;BME280;48695;53.480;-6.300;2022-12-07T07:56:46;102062.63;;;4.89;72.22
61537;BME280;48695;53.480;-6.300;2022-12-07T07:59:12;102032.03;;;4.72;72.40
61537;BME280;48695;53.480;-6.300;2022-12-07T08:01:37;102049.53;;;4.83;72.51
61537;BME280;48695;53.480;-6.300;2022-12-07T08:04:03;102058.06;;;4.78;72.40
61537;BME280;48695;53.480;-6.300;2022-12-07T08:06:28;102041.44;;;4.68;72.48
61537;BME280;48695;53.480;-6.300;2022-12-07T08:08:53;102058.81;;;4.74;72.50
61537;BME280;48695;53.480;-6.300;2022-12-07T08:11:19;102049.19;;;4.68;72.30
61537;BME280;48695;53.480;-6.300;2022-12-07T08:13:47;102068.34;;;4.76;72.28
61537;BME280;48695;53.480;-6.300;2022-12-07T08:16:13;102072.63;;;4.74;72.46
61537;BME280;48695;53.480;-6.300;2022-12-07T08:18:40;102076.91;;;4.72;72.45
61537;BME280;48695;53.480;-6.300;2022-12-07T08:21:07;102059.53;;;4.66;72.56
61537;BME280;48695;53.480;-6.300;2022-12-07T08:23:33;102068.09;;;4.65;72.73
61537;BME280;48695;53.480;-6.300;2022-12-07T08:26:07;102045.50;;;4.57;72.15
61537;BME280;48695;53.480;-6.300;2022-12-07T08:28:33;102053.16;;;4.54;72.29
61537;BME280;48695;53.480;-6.300;2022-12-07T08:31:05;102042.53;;;4.41;72.19
61537;BME280;48695;53.480;-6.300;2022-12-07T08:33:31;102058.22;;;4.48;72.29
61537;BME280;48695;53.480;-6.300;2022-12-07T08:36:01;102056.28;;;4.40;72.34
61537;BME280;48695;53.480;-6.300;2022-12-07T08:38:27;102031.66;;;4.20;72.39
61537;BME280;48695;53.480;-6.300;2022-12-07T08:40:56;102058.78;;;4.36;72.25
61537;BME280;48695;53.480;-6.300;2022-12-07T08:43:22;102025.47;;;4.13;72.41
61537;BME280;48695;53.480;-6.300;2022-12-07T08:46:09;102055.16;;;4.29;72.40
61537;BME280;48695;53.480;-6.300;2022-12-07T08:48:44;102057.59;;;4.23;72.56
61537;BME280;48695;53.480;-6.300;2022-12-07T08:51:12;102048.00;;;4.19;72.84
61537;BME280;48695;53.480;-6.300;2022-12-07T08:53:39;102050.59;;;4.19;72.43
61537;BME280;48695;53.480;-6.300;2022-12-07T08:56:05;102048.84;;;4.18;72.75
61537;BME280;48695;53.480;-6.300;2022-12-07T08:58:33;102039.16;;;4.09;72.70
61537;BME280;48695;53.480;-6.300;2022-12-07T09:00:59;102038.38;;;4.12;73.04
61537;BME280;48695;53.480;-6.300;2022-12-07T09:03:24;102042.81;;;4.18;73.01
61537;BME280;48695;53.480;-6.300;2022-12-07T09:05:50;102020.94;;;4.05;72.97
61537;BME280;48695;53.480;-6.300;2022-12-07T09:08:15;102047.16;;;4.20;72.71
61537;BME280;48695;53.480;-6.300;2022-12-07T09:10:41;102031.50;;;4.14;73.05
61537;BME280;48695;53.480;-6.300;2022-12-07T09:13:06;101997.41;;;3.94;72.46
61537;BME280;48695;53.480;-6.300;2022-12-07T09:15:32;102020.19;;;4.09;72.45
61537;BME280;48695;53.480;-6.300;2022-12-07T09:17:58;102042.06;;;4.22;72.82
61537;BME280;48695;53.480;-6.300;2022-12-07T09:20:23;101947.66;;;3.68;72.62
61537;BME280;48695;53.480;-6.300;2022-12-07T09:22:49;102052.66;;;4.32;72.52
61537;BME280;48695;53.480;-6.300;2022-12-07T09:25:14;102036.09;;;4.26;72.75
61537;BME280;48695;53.480;-6.300;2022-12-07T09:27:40;102023.00;;;4.18;72.87
61537;BME280;48695;53.480;-6.300;2022-12-07T09:30:06;102045.03;;;4.38;72.82
61537;BME280;48695;53.480;-6.300;2022-12-07T09:32:32;102029.44;;;4.35;72.78
61537;BME280;48695;53.480;-6.300;2022-12-07T09:34:57;102038.28;;;4.45;73.09
61537;BME280;48695;53.480;-6.300;2022-12-07T09:37:23;102039.34;;;4.52;72.87
61537;BME280;48695;53.480;-6.300;2022-12-07T09:39:48;102038.53;;;4.54;72.95
61537;BME280;48695;53.480;-6.300;2022-12-07T09:42:30;102052.66;;;4.68;72.82
61537;BME280;48695;53.480;-6.300;2022-12-07T09:44:58;102031.94;;;4.67;72.72
61537;BME280;48695;53.480;-6.300;2022-12-07T09:47:24;102032.97;;;4.75;72.88
61537;BME280;48695;53.480;-6.300;2022-12-07T09:49:50;102034.97;;;4.87;73.01
61537;BME280;48695;53.480;-6.300;2022-12-07T09:52:19;102029.09;;;4.95;72.57
61537;BME280;48695;53.480;-6.300;2022-12-07T09:54:48;102007.47;;;4.92;72.57
61537;BME280;48695;53.480;-6.300;2022-12-07T09:57:15;102022.59;;;5.13;72.83
61537;BME280;48695;53.480;-6.300;2022-12-07T09:59:41;102021.97;;;5.26;72.41
61537;BME280;48695;53.480;-6.300;2022-12-07T10:02:33;102030.13;;;5.46;72.40
61537;BME280;48695;53.480;-6.300;2022-12-07T10:04:59;102031.25;;;5.59;72.06
61537;BME280;48695;53.480;-6.300;2022-12-07T10:07:25;102009.91;;;5.72;72.16
61537;BME280;48695;53.480;-6.300;2022-12-07T10:09:50;102019.88;;;5.97;72.31
61537;BME280;48695;53.480;-6.300;2022-12-07T10:12:16;102002.84;;;6.10;71.76
61537;BME280;48695;53.480;-6.300;2022-12-07T10:15:02;101993.81;;;6.41;72.02
61537;BME280;48695;53.480;-6.300;2022-12-07T10:20:20;102009.50;;;7.13;72.14
61537;BME280;48695;53.480;-6.300;2022-12-07T10:23:12;102005.41;;;7.35;71.35
61537;BME280;48695;53.480;-6.300;2022-12-07T10:25:38;102001.34;;;7.58;69.91
61537;BME280;48695;53.480;-6.300;2022-12-07T10:30:56;102002.78;;;8.17;70.02
61537;BME280;48695;53.480;-6.300;2022-12-07T10:33:28;101991.72;;;8.45;68.97
61537;BME280;48695;53.480;-6.300;2022-12-07T10:35:54;101989.25;;;8.65;68.01
61537;BME280;48695;53.480;-6.300;2022-12-07T10:38:20;101966.78;;;8.79;67.69
61537;BME280;48695;53.480;-6.300;2022-12-07T10:40:45;101983.41;;;9.12;67.06
61537;BME280;48695;53.480;-6.300;2022-12-07T11:00:24;101969.69;;;10.31;64.28
61537;BME280;48695;53.480;-6.300;2022-12-07T11:11:09;101957.41;;;10.76;65.21
61537;BME280;48695;53.480;-6.300;2022-12-07T11:13:57;101962.53;;;10.94;64.82
61537;BME280;48695;53.480;-6.300;2022-12-07T11:19:32;101969.31;;;11.35;65.61
61537;BME280;48695;53.480;-6.300;2022-12-07T11:36:04;101959.34;;;12.83;63.49
61537;BME280;48695;53.480;-6.300;2022-12-07T11:38:55;101935.47;;;13.03;64.30
61537;BME280;48695;53.480;-6.300;2022-12-07T11:41:28;101948.25;;;13.32;60.44
61537;BME280;48695;53.480;-6.300;2022-12-07T11:44:05;101940.91;;;13.55;61.46
61537;BME280;48695;53.480;-6.300;2022-12-07T11:46:50;101940.56;;;13.76;61.65
61537;BME280;48695;53.480;-6.300;2022-12-07T11:49:23;101942.13;;;13.90;58.16
61537;BME280;48695;53.480;-6.300;2022-12-07T11:51:53;101930.31;;;14.14;58.46
61537;BME280;48695;53.480;-6.300;2022-12-07T11:54:28;101936.91;;;14.36;58.34
61537;BME280;48695;53.480;-6.300;2022-12-07T11:56:56;101930.59;;;14.48;56.35
61537;BME280;48695;53.480;-6.300;2022-12-07T11:59:33;101928.38;;;14.71;57.35
61537;BME280;48695;53.480;-6.300;2022-12-07T12:02:18;101926.25;;;14.89;58.96
61537;BME280;48695;53.480;-6.300;2022-12-07T12:05:21;101917.97;;;15.07;60.36
61537;BME280;48695;53.480;-6.300;2022-12-07T12:08:03;101911.66;;;15.14;56.39
61537;BME280;48695;53.480;-6.300;2022-12-07T12:13:20;101912.69;;;15.46;56.88
61537;BME280;48695;53.480;-6.300;2022-12-07T12:16:13;101900.03;;;15.63;58.57
61537;BME280;48695;53.480;-6.300;2022-12-07T12:18:52;101903.25;;;15.74;55.56
61537;BME280;48695;53.480;-6.300;2022-12-07T12:21:26;101903.78;;;15.89;56.04
61537;BME280;48695;53.480;-6.300;2022-12-07T12:24:04;101895.56;;;16.01;56.71
61537;BME280;48695;53.480;-6.300;2022-12-07T12:26:36;101907.56;;;16.11;53.34
61537;BME280;48695;53.480;-6.300;2022-12-07T12:29:05;101881.84;;;16.21;52.94
61537;BME280;48695;53.480;-6.300;2022-12-07T12:31:34;101886.94;;;16.28;51.38
61537;BME280;48695;53.480;-6.300;2022-12-07T12:34:04;101882.13;;;16.43;51.81
61537;BME280;48695;53.480;-6.300;2022-12-07T12:36:49;101874.22;;;16.43;52.54
61537;BME280;48695;53.480;-6.300;2022-12-07T12:39:16;101877.38;;;16.55;52.27
61537;BME280;48695;53.480;-6.300;2022-12-07T12:51:48;101852.06;;;17.09;50.57
61537;BME280;48695;53.480;-6.300;2022-12-07T12:59:23;101849.84;;;17.50;52.03
61537;BME280;48695;53.480;-6.300;2022-12-07T13:01:53;101850.66;;;17.52;48.83
61537;BME280;48695;53.480;-6.300;2022-12-07T13:04:30;101843.34;;;17.60;51.53
61537;BME280;48695;53.480;-6.300;2022-12-07T13:06:59;101840.84;;;17.55;47.42
61537;BME280;48695;53.480;-6.300;2022-12-07T13:09:30;101846.78;;;17.62;49.31
61537;BME280;48695;53.480;-6.300;2022-12-07T13:12:13;101840.56;;;17.64;51.88
61537;BME280;48695;53.480;-6.300;2022-12-07T13:14:56;101841.63;;;17.59;47.58
61537;BME280;48695;53.480;-6.300;2022-12-07T13:20:03;101821.81;;;17.46;46.76
61537;BME280;48695;53.480;-6.300;2022-12-07T13:24:57;101824.88;;;17.58;46.08
61537;BME280;48695;53.480;-6.300;2022-12-07T13:27:25;101812.03;;;17.48;47.23
61537;BME280;48695;53.480;-6.300;2022-12-07T13:29:52;101823.94;;;17.61;46.62
61537;BME280;48695;53.480;-6.300;2022-12-07T13:32:28;101822.94;;;17.63;48.82
61537;BME280;48695;53.480;-6.300;2022-12-07T13:34:55;101816.06;;;17.59;46.68
61537;BME280;48695;53.480;-6.300;2022-12-07T13:37:25;101821.91;;;17.69;47.09
61537;BME280;48695;53.480;-6.300;2022-12-07T13:40:35;101822.00;;;17.66;45.83
61537;BME280;48695;53.480;-6.300;2022-12-07T13:42:41;101810.03;;;17.56;45.63
61537;BME280;48695;53.480;-6.300;2022-12-07T13:45:25;101807.88;;;17.67;50.39
61537;BME280;48695;53.480;-6.300;2022-12-07T13:48:35;101807.88;;;17.67;50.34
61537;BME280;48695;53.480;-6.300;2022-12-07T13:51:03;101794.41;;;17.50;45.75
61537;BME280;48695;53.480;-6.300;2022-12-07T13:53:29;101809.22;;;17.54;45.29
61537;BME280;48695;53.480;-6.300;2022-12-07T13:55:59;101801.47;;;17.48;46.03
61537;BME280;48695;53.480;-6.300;2022-12-07T13:58:26;101798.34;;;17.36;46.03
61537;BME280;48695;53.480;-6.300;2022-12-07T14:00:54;101794.22;;;17.28;45.07
61537;BME280;48695;53.480;-6.300;2022-12-07T14:03:27;101790.13;;;17.19;47.29
61537;BME280;48695;53.480;-6.300;2022-12-07T14:06:05;101794.72;;;17.14;48.03
61537;BME280;48695;53.480;-6.300;2022-12-07T14:08:31;101781.88;;;17.02;45.89
61537;BME280;48695;53.480;-6.300;2022-12-07T14:10:57;101781.28;;;16.94;45.52
61537;BME280;48695;53.480;-6.300;2022-12-07T14:15:51;101779.22;;;16.75;46.25
61537;BME280;48695;53.480;-6.300;2022-12-07T14:18:27;101778.75;;;16.61;47.88
61537;BME280;48695;53.480;-6.300;2022-12-07T14:21:24;101773.16;;;16.42;48.73
61537;BME280;48695;53.480;-6.300;2022-12-07T14:26:34;101740.72;;;15.79;46.34
61537;BME280;48695;53.480;-6.300;2022-12-07T14:31:44;101751.25;;;15.47;46.38
61537;BME280;48695;53.480;-6.300;2022-12-07T14:34:12;101756.16;;;15.26;47.65
61537;BME280;48695;53.480;-6.300;2022-12-07T14:36:37;101750.59;;;15.03;47.14
61537;BME280;48695;53.480;-6.300;2022-12-07T14:39:03;101752.81;;;14.83;47.51
61537;BME280;48695;53.480;-6.300;2022-12-07T14:41:28;101755.84;;;14.66;48.19
61537;BME280;48695;53.480;-6.300;2022-12-07T14:44:12;101757.13;;;14.48;48.08
61537;BME280;48695;53.480;-6.300;2022-12-07T14:46:38;101740.78;;;14.32;47.35
61537;BME280;48695;53.480;-6.300;2022-12-07T14:49:03;101736.75;;;14.16;47.84
61537;BME280;48695;53.480;-6.300;2022-12-07T14:51:28;101742.38;;;13.99;48.54
61537;BME280;48695;53.480;-6.300;2022-12-07T14:53:54;101721.84;;;13.74;48.66
61537;BME280;48695;53.480;-6.300;2022-12-07T14:56:20;101735.03;;;13.71;49.45